createdAt,value
2019-05-16T00:00:55.186Z,11.73
2019-05-16T00:01:55.205Z,11.78
2019-05-16T00:02:55.223Z,11.84
2019-05-16T00:03:55.244Z,11.87
2019-05-16T00:04:55.256Z,11.83
2019-05-16T00:05:55.275Z,11.84
2019-05-16T00:06:55.293Z,11.80
2019-05-16T00:07:55.321Z,11.72
2019-05-16T00:08:55.327Z,11.73
2019-05-16T00:09:55.346Z,11.80
2019-05-16T00:10:55.367Z,11.70
2019-05-16T00:11:55.382Z,11.63
2019-05-16T00:12:55.399Z,11.69
2019-05-16T00:13:57.750Z,11.62
2019-05-16T00:14:55.440Z,11.66
2019-05-16T00:15:55.456Z,11.65
2019-05-16T00:16:55.467Z,11.62
2019-05-16T00:17:58.049Z,11.66
2019-05-16T00:18:55.511Z,11.60
2019-05-16T00:19:55.522Z,11.60
2019-05-16T00:20:55.542Z,11.62
2019-05-16T00:21:55.555Z,11.57
2019-05-16T00:22:55.575Z,11.55
2019-05-16T00:23:55.594Z,11.65
2019-05-16T00:24:57.930Z,11.60
2019-05-16T00:25:55.625Z,11.55
2019-05-16T00:26:57.922Z,11.59
2019-05-16T00:27:55.661Z,11.62
2019-05-16T00:28:55.681Z,11.66
2019-05-16T00:29:57.986Z,11.51
2019-05-16T00:30:55.720Z,11.48
2019-05-16T00:31:57.922Z,11.59
2019-05-16T00:32:55.751Z,11.47
2019-05-16T00:33:57.786Z,11.51
2019-05-16T00:34:58.211Z,11.55
2019-05-16T00:36:02.589Z,11.55
2019-05-16T00:36:58.043Z,11.59
2019-05-16T00:37:55.836Z,11.55
2019-05-16T00:38:57.708Z,11.54
2019-05-16T00:39:55.880Z,11.51
2019-05-16T00:40:55.891Z,11.51
2019-05-16T00:41:58.218Z,11.51
2019-05-16T00:42:55.935Z,11.55
2019-05-16T00:43:57.737Z,11.62
2019-05-16T00:44:58.271Z,11.59
2019-05-16T00:45:55.976Z,11.55
2019-05-16T00:46:58.119Z,11.54
2019-05-16T00:47:58.292Z,11.54
2019-05-16T00:48:56.032Z,11.66
2019-05-16T00:49:58.037Z,11.59
2019-05-16T00:50:58.283Z,11.69
2019-05-16T00:51:58.308Z,11.69
2019-05-16T00:52:56.100Z,11.62
2019-05-16T00:53:56.123Z,11.66
2019-05-16T00:54:57.986Z,11.66
2019-05-16T00:55:58.382Z,11.63
2019-05-16T00:56:57.814Z,11.65
2019-05-16T00:57:58.204Z,11.59
2019-05-16T00:58:56.205Z,11.59
2019-05-16T00:59:56.222Z,11.65
2019-05-16T01:00:56.243Z,11.59
2019-05-16T01:01:58.623Z,11.55
2019-05-16T01:02:57.840Z,11.52
2019-05-16T01:03:58.475Z,11.57
2019-05-16T01:04:56.312Z,11.65
2019-05-16T01:05:58.223Z,11.60
2019-05-16T01:06:58.495Z,11.66
2019-05-16T01:07:58.364Z,11.70
2019-05-16T01:08:57.949Z,11.72
2019-05-16T01:09:58.295Z,11.69
2019-05-16T01:10:58.506Z,11.60
2019-05-16T01:11:57.942Z,11.60
2019-05-16T01:12:58.415Z,11.60
2019-05-16T01:13:57.884Z,11.59
2019-05-16T01:14:58.469Z,11.60
2019-05-16T01:15:57.916Z,11.50
2019-05-16T01:16:58.136Z,11.55
2019-05-16T01:17:58.730Z,11.47
2019-05-16T01:18:58.871Z,11.55
2019-05-16T01:19:57.842Z,11.47
2019-05-16T01:20:58.584Z,11.43
2019-05-16T01:21:58.826Z,11.47
2019-05-16T01:22:58.165Z,11.45
2019-05-16T01:23:58.602Z,11.30
2019-05-16T01:24:58.456Z,11.36
2019-05-16T01:25:58.858Z,11.36
2019-05-16T01:26:57.777Z,11.37
2019-05-16T01:27:58.250Z,11.33
2019-05-16T01:28:57.710Z,11.37
2019-05-16T01:29:58.353Z,11.33
2019-05-16T01:30:58.003Z,11.36
2019-05-16T01:31:58.846Z,11.43
2019-05-16T01:32:58.259Z,11.44
2019-05-16T01:33:58.393Z,11.36
2019-05-16T01:34:58.847Z,11.40
2019-05-16T01:35:58.522Z,11.44
2019-05-16T01:36:58.986Z,11.41
2019-05-16T01:37:58.070Z,11.37
2019-05-16T01:38:58.494Z,11.35
2019-05-16T01:39:58.738Z,11.43
2019-05-16T01:40:58.339Z,11.33
2019-05-16T01:41:58.690Z,11.35
2019-05-16T01:42:57.875Z,11.37
2019-05-16T01:43:58.513Z,11.37
2019-05-16T01:44:57.859Z,11.37
2019-05-16T01:45:57.791Z,11.40
2019-05-16T01:46:58.575Z,11.36
2019-05-16T01:47:58.698Z,11.45
2019-05-16T01:48:57.793Z,11.41
2019-05-16T01:49:58.025Z,11.45
2019-05-16T01:50:58.407Z,11.41
2019-05-16T01:51:57.894Z,11.50
2019-05-16T01:52:57.884Z,11.40
2019-05-16T01:53:58.034Z,11.40
2019-05-16T01:54:58.671Z,11.36
2019-05-16T01:55:58.062Z,11.41
2019-05-16T01:56:59.344Z,11.37
2019-05-16T01:57:58.503Z,11.40
2019-05-16T01:58:58.277Z,11.37
2019-05-16T01:59:59.015Z,11.32
2019-05-16T02:01:05.832Z,11.36
2019-05-16T02:02:00.668Z,11.33
2019-05-16T02:02:57.911Z,11.37
2019-05-16T02:03:58.714Z,11.35
2019-05-16T02:04:59.068Z,11.35
2019-05-16T02:05:58.548Z,11.30
2019-05-16T02:06:58.517Z,11.27
2019-05-16T02:07:58.356Z,11.45
2019-05-16T02:08:57.975Z,11.32
2019-05-16T02:09:58.236Z,11.37
2019-05-16T02:10:58.376Z,11.35
2019-05-16T02:11:58.924Z,11.29
2019-05-16T02:12:58.143Z,11.30
2019-05-16T02:13:58.579Z,11.23
2019-05-16T02:14:58.737Z,11.33
2019-05-16T02:15:59.357Z,11.18
2019-05-16T02:16:58.092Z,11.19
2019-05-16T02:17:58.689Z,11.18
2019-05-16T02:18:58.880Z,11.23
2019-05-16T02:19:57.852Z,11.25
2019-05-16T02:21:00.922Z,11.25
2019-05-16T02:21:59.653Z,11.27
2019-05-16T02:22:58.574Z,11.25
2019-05-16T02:23:58.549Z,11.19
2019-05-16T02:24:58.506Z,11.15
2019-05-16T02:25:58.073Z,11.15
2019-05-16T02:26:58.931Z,11.05
2019-05-16T02:27:58.964Z,11.08
2019-05-16T02:28:57.796Z,11.02
2019-05-16T02:29:59.893Z,11.04
2019-05-16T02:31:00.973Z,11.12
2019-05-16T02:32:01.552Z,11.11
2019-05-16T02:33:00.821Z,11.08
2019-05-16T02:33:57.875Z,11.05
2019-05-16T02:35:00.918Z,10.94
2019-05-16T02:36:01.509Z,10.94
2019-05-16T02:37:17.971Z,10.93
2019-05-16T02:38:00.725Z,10.90
2019-05-16T02:38:57.964Z,10.79
2019-05-16T02:40:01.116Z,10.87
2019-05-16T02:40:58.005Z,10.78
2019-05-16T02:42:00.819Z,10.87
2019-05-16T02:43:01.123Z,10.76
2019-05-16T02:44:00.971Z,10.76
2019-05-16T02:45:01.851Z,10.81
2019-05-16T02:46:01.246Z,10.93
2019-05-16T02:47:01.224Z,10.87
2019-05-16T02:48:00.988Z,10.90
2019-05-16T02:49:00.805Z,10.86
2019-05-16T02:50:00.787Z,10.87
2019-05-16T02:51:01.576Z,10.87
2019-05-16T02:52:01.176Z,10.87
2019-05-16T02:53:01.298Z,10.90
2019-05-16T02:54:01.181Z,10.92
2019-05-16T02:55:00.821Z,10.90
2019-05-16T02:56:01.161Z,10.89
2019-05-16T02:57:01.182Z,10.84
2019-05-16T02:58:00.952Z,10.72
2019-05-16T02:59:01.430Z,10.81
2019-05-16T03:00:01.234Z,10.76
2019-05-16T03:01:01.473Z,10.63
2019-05-16T03:02:00.923Z,10.64
2019-05-16T03:03:01.082Z,10.67
2019-05-16T03:04:01.469Z,10.72
2019-05-16T03:05:00.978Z,10.75
2019-05-16T03:06:01.067Z,10.78
2019-05-16T03:07:00.703Z,10.71
2019-05-16T03:08:01.166Z,10.71
2019-05-16T03:09:01.758Z,10.71
2019-05-16T03:10:01.534Z,10.74
2019-05-16T03:11:01.066Z,10.68
2019-05-16T03:12:01.073Z,10.59
2019-05-16T03:13:00.907Z,10.63
2019-05-16T03:14:00.572Z,10.61
2019-05-16T03:15:01.831Z,10.49
2019-05-16T03:16:00.667Z,10.44
2019-05-16T03:17:00.991Z,10.48
2019-05-16T03:18:00.425Z,10.51
2019-05-16T03:19:01.205Z,10.54
2019-05-16T03:20:01.501Z,10.54
2019-05-16T03:21:00.582Z,10.64
2019-05-16T03:22:01.181Z,10.57
2019-05-16T03:23:01.926Z,10.64
2019-05-16T03:24:00.829Z,10.54
2019-05-16T03:25:01.143Z,10.59
2019-05-16T03:26:01.054Z,10.54
2019-05-16T03:27:01.615Z,10.56
2019-05-16T03:28:01.592Z,10.61
2019-05-16T03:29:00.936Z,10.56
2019-05-16T03:30:01.770Z,10.61
2019-05-16T03:31:04.345Z,10.57
2019-05-16T03:32:03.126Z,10.54
2019-05-16T03:33:04.239Z,10.46
2019-05-16T03:34:06.575Z,10.54
2019-05-16T03:35:04.191Z,10.57
2019-05-16T03:36:04.045Z,10.41
2019-05-16T03:37:04.335Z,10.49
2019-05-16T03:38:01.484Z,10.42
2019-05-16T03:39:01.309Z,10.54
2019-05-16T03:40:00.624Z,10.51
2019-05-16T03:41:00.979Z,10.40
2019-05-16T03:42:01.101Z,10.49
2019-05-16T03:43:01.399Z,10.38
2019-05-16T03:44:01.420Z,10.41
2019-05-16T03:45:02.093Z,10.49
2019-05-16T03:46:02.177Z,10.41
2019-05-16T03:47:01.018Z,10.38
2019-05-16T03:48:02.817Z,10.41
2019-05-16T03:49:02.101Z,10.49
2019-05-16T03:50:00.612Z,10.53
2019-05-16T03:51:00.860Z,10.46
2019-05-16T03:52:01.624Z,10.38
2019-05-16T03:53:01.529Z,10.37
2019-05-16T03:54:02.596Z,10.40
2019-05-16T03:55:01.595Z,10.40
2019-05-16T03:56:01.894Z,10.34
2019-05-16T03:57:00.533Z,10.40
2019-05-16T03:58:01.164Z,10.44
2019-05-16T03:59:01.191Z,10.34
2019-05-16T04:00:00.587Z,10.31
2019-05-16T04:01:02.307Z,10.44
2019-05-16T04:02:01.420Z,10.40
2019-05-16T04:03:01.222Z,10.40
2019-05-16T04:04:01.707Z,10.42
2019-05-16T04:05:01.769Z,10.40
2019-05-16T04:06:01.169Z,10.40
2019-05-16T04:07:01.406Z,10.37
2019-05-16T04:08:13.713Z,10.33
2019-05-16T04:09:01.518Z,10.44
2019-05-16T04:10:02.315Z,10.42
2019-05-16T04:11:01.382Z,10.41
2019-05-16T04:12:01.934Z,10.42
2019-05-16T04:13:01.062Z,10.48
2019-05-16T04:14:01.453Z,10.46
2019-05-16T04:15:01.809Z,10.37
2019-05-16T04:16:01.396Z,10.34
2019-05-16T04:17:01.377Z,10.38
2019-05-16T04:18:01.580Z,10.41
2019-05-16T04:19:01.991Z,10.38
2019-05-16T04:20:01.936Z,10.37
2019-05-16T04:21:01.002Z,10.34
2019-05-16T04:22:01.365Z,10.40
2019-05-16T04:23:01.134Z,10.37
2019-05-16T04:24:01.304Z,10.31
2019-05-16T04:25:01.989Z,10.33
2019-05-16T04:26:00.702Z,10.44
2019-05-16T04:27:01.027Z,10.31
2019-05-16T04:28:01.084Z,10.40
2019-05-16T04:29:00.760Z,10.38
2019-05-16T04:30:01.716Z,10.53
2019-05-16T04:31:02.006Z,10.42
2019-05-16T04:32:01.529Z,10.41
2019-05-16T04:33:01.951Z,10.44
2019-05-16T04:34:01.100Z,10.31
2019-05-16T04:35:02.485Z,10.35
2019-05-16T04:36:01.306Z,10.37
2019-05-16T04:37:01.180Z,10.38
2019-05-16T04:38:01.898Z,10.37
2019-05-16T04:39:01.750Z,10.37
2019-05-16T04:40:01.199Z,10.34
2019-05-16T04:41:01.438Z,10.48
2019-05-16T04:42:01.621Z,10.35
2019-05-16T04:43:01.220Z,10.42
2019-05-16T04:44:03.916Z,10.46
2019-05-16T04:45:01.061Z,10.40
2019-05-16T04:46:01.301Z,10.51
2019-05-16T04:47:01.540Z,10.40
2019-05-16T04:48:00.496Z,10.40
2019-05-16T04:49:01.679Z,10.30
2019-05-16T04:50:01.537Z,10.35
2019-05-16T04:51:01.416Z,10.38
2019-05-16T04:52:00.683Z,10.51
2019-05-16T04:53:01.342Z,10.31
2019-05-16T04:54:02.493Z,10.35
2019-05-16T04:55:00.919Z,10.53
2019-05-16T04:56:01.660Z,10.51
2019-05-16T04:57:01.492Z,10.48
2019-05-16T04:58:01.452Z,10.54
2019-05-16T04:59:00.568Z,10.53
2019-05-16T05:00:02.322Z,10.42
2019-05-16T05:01:01.479Z,10.49
2019-05-16T05:02:02.106Z,10.53
2019-05-16T05:03:01.344Z,10.61
2019-05-16T05:04:10.374Z,10.67
2019-05-16T05:05:01.237Z,10.74
2019-05-16T05:06:01.214Z,10.63
2019-05-16T05:07:00.843Z,10.59
2019-05-16T05:08:01.533Z,10.61
2019-05-16T05:09:03.498Z,10.42
2019-05-16T05:10:00.948Z,10.59
2019-05-16T05:11:01.361Z,10.54
2019-05-16T05:12:04.308Z,10.64
2019-05-16T05:13:01.635Z,10.61
2019-05-16T05:14:01.047Z,10.61
2019-05-16T05:15:01.395Z,10.71
2019-05-16T05:16:01.301Z,10.74
2019-05-16T05:17:02.252Z,10.74
2019-05-16T05:18:00.773Z,10.64
2019-05-16T05:19:00.703Z,10.76
2019-05-16T05:20:01.228Z,10.72
2019-05-16T05:21:01.156Z,10.74
2019-05-16T05:22:01.330Z,10.71
2019-05-16T05:23:00.767Z,10.64
2019-05-16T05:24:00.783Z,10.59
2019-05-16T05:25:00.806Z,10.61
2019-05-16T05:26:00.825Z,10.72
2019-05-16T05:27:00.835Z,10.71
2019-05-16T05:28:01.005Z,10.92
2019-05-16T05:29:00.871Z,10.90
2019-05-16T05:30:01.242Z,10.93
2019-05-16T05:31:00.905Z,10.90
2019-05-16T05:32:04.346Z,10.82
2019-05-16T05:33:00.940Z,10.72
2019-05-16T05:34:01.399Z,10.90
2019-05-16T05:35:00.974Z,10.96
2019-05-16T05:36:01.314Z,11.05
2019-05-16T05:37:01.012Z,11.14
2019-05-16T05:38:01.063Z,11.30
2019-05-16T05:39:11.701Z,11.23
2019-05-16T05:40:01.059Z,11.35
2019-05-16T05:41:01.078Z,11.37
2019-05-16T05:42:01.094Z,11.44
2019-05-16T05:43:01.113Z,11.30
2019-05-16T05:44:01.129Z,11.35
2019-05-16T05:45:01.149Z,11.05
2019-05-16T05:46:01.165Z,11.12
2019-05-16T05:47:01.186Z,11.05
2019-05-16T05:48:01.201Z,11.02
2019-05-16T05:49:01.217Z,11.05
2019-05-16T05:50:01.240Z,11.07
2019-05-16T05:51:01.255Z,11.18
2019-05-16T05:52:01.272Z,11.19
2019-05-16T05:53:01.563Z,11.04
2019-05-16T05:54:01.306Z,11.08
2019-05-16T05:55:01.326Z,11.10
2019-05-16T05:56:01.343Z,11.10
2019-05-16T05:57:01.367Z,11.07
2019-05-16T05:58:01.375Z,11.00
2019-05-16T05:59:01.646Z,10.92
2019-05-16T06:00:01.426Z,10.94
2019-05-16T06:01:01.462Z,11.00
2019-05-16T06:02:01.448Z,11.05
2019-05-16T06:03:01.473Z,11.04
2019-05-16T06:04:01.497Z,10.90
2019-05-16T06:05:01.507Z,10.79
2019-05-16T06:06:01.524Z,10.89
2019-05-16T06:07:01.539Z,10.90
2019-05-16T06:08:01.558Z,10.92
2019-05-16T06:09:01.571Z,10.86
2019-05-16T06:10:01.596Z,10.94
2019-05-16T06:11:01.606Z,10.89
2019-05-16T06:12:01.632Z,10.93
2019-05-16T06:13:01.644Z,11.10
2019-05-16T06:14:01.662Z,11.05
2019-05-16T06:15:07.377Z,10.99
2019-05-16T06:16:01.692Z,10.89
2019-05-16T06:17:01.716Z,10.87
2019-05-16T06:18:01.724Z,10.93
2019-05-16T06:19:01.743Z,10.92
2019-05-16T06:20:01.784Z,10.93
2019-05-16T06:21:01.781Z,10.94
2019-05-16T06:22:01.861Z,10.99
2019-05-16T06:23:01.820Z,10.99
2019-05-16T06:24:01.834Z,10.87
2019-05-16T06:25:01.849Z,10.93
2019-05-16T06:26:02.122Z,10.87
2019-05-16T06:27:01.883Z,10.94
2019-05-16T06:28:01.918Z,10.97
2019-05-16T06:29:01.921Z,10.89
2019-05-16T06:30:01.941Z,10.72
2019-05-16T06:31:02.626Z,10.68
2019-05-16T06:32:02.072Z,10.75
2019-05-16T06:33:01.989Z,10.87
2019-05-16T06:34:08.351Z,10.86
2019-05-16T06:35:02.028Z,10.93
2019-05-16T06:36:02.041Z,10.99
2019-05-16T06:37:02.077Z,11.10
2019-05-16T06:38:02.127Z,11.10
2019-05-16T06:39:02.090Z,11.07
2019-05-16T06:40:02.462Z,11.08
2019-05-16T06:41:02.132Z,11.00
2019-05-16T06:42:02.147Z,11.05
2019-05-16T06:43:02.165Z,11.05
2019-05-16T06:44:02.179Z,11.11
2019-05-16T06:45:02.206Z,11.18
2019-05-16T06:46:02.213Z,11.15
2019-05-16T06:47:16.081Z,11.18
2019-05-16T06:48:02.260Z,11.22
2019-05-16T06:49:02.269Z,11.37
2019-05-16T06:50:02.284Z,11.30
2019-05-16T06:51:03.121Z,11.36
2019-05-16T06:52:02.321Z,11.30
2019-05-16T06:53:02.337Z,11.36
2019-05-16T06:54:02.356Z,11.40
2019-05-16T06:55:02.374Z,11.33
2019-05-16T06:56:02.392Z,11.35
2019-05-16T06:57:02.411Z,11.41
2019-05-16T06:58:02.427Z,11.43
2019-05-16T06:59:02.442Z,11.35
2019-05-16T07:00:02.463Z,11.29
2019-05-16T07:01:03.592Z,11.40
2019-05-16T07:02:02.499Z,11.40
2019-05-16T07:03:02.521Z,11.37
2019-05-16T07:04:04.938Z,11.32
2019-05-16T07:05:02.652Z,11.30
2019-05-16T07:06:02.568Z,11.44
2019-05-16T07:07:03.285Z,11.32
2019-05-16T07:08:02.602Z,11.33
2019-05-16T07:09:02.629Z,11.30
2019-05-16T07:10:04.643Z,11.25
2019-05-16T07:11:02.659Z,11.33
2019-05-16T07:12:02.675Z,11.33
2019-05-16T07:13:02.697Z,11.23
2019-05-16T07:14:02.711Z,11.23
2019-05-16T07:15:02.730Z,11.29
2019-05-16T07:16:02.745Z,11.40
2019-05-16T07:17:02.765Z,11.32
2019-05-16T07:18:02.780Z,11.29
2019-05-16T07:19:02.798Z,11.30
2019-05-16T07:20:02.832Z,11.35
2019-05-16T07:21:02.834Z,11.47
2019-05-16T07:22:02.853Z,11.50
2019-05-16T07:23:02.869Z,11.52
2019-05-16T07:24:02.893Z,11.68
2019-05-16T07:25:03.256Z,11.86
2019-05-16T07:26:02.924Z,11.65
2019-05-16T07:27:02.950Z,11.78
2019-05-16T07:28:02.965Z,11.83
2019-05-16T07:29:02.979Z,11.75
2019-05-16T07:30:02.998Z,11.88
2019-05-16T07:31:14.896Z,11.88
2019-05-16T07:32:03.032Z,12.00
2019-05-16T07:33:03.054Z,11.88
2019-05-16T07:34:03.074Z,12.02
2019-05-16T07:35:03.086Z,12.20
2019-05-16T07:36:03.107Z,12.28
2019-05-16T07:37:03.126Z,12.25
2019-05-16T07:38:03.140Z,12.02
2019-05-16T07:39:03.261Z,12.06
2019-05-16T07:40:16.068Z,12.07
2019-05-16T07:41:03.194Z,12.03
2019-05-16T07:42:03.212Z,11.97
2019-05-16T07:43:03.232Z,11.80
2019-05-16T07:44:03.249Z,12.04
2019-05-16T07:45:03.267Z,12.00
2019-05-16T07:46:03.291Z,11.90
2019-05-16T07:47:03.308Z,11.97
2019-05-16T07:48:03.330Z,11.99
2019-05-16T07:49:03.341Z,12.02
2019-05-16T07:50:03.362Z,12.06
2019-05-16T07:51:03.380Z,12.02
2019-05-16T07:52:03.396Z,12.13
2019-05-16T07:53:03.415Z,12.13
2019-05-16T07:54:03.430Z,12.10
2019-05-16T07:55:04.064Z,12.13
2019-05-16T07:56:03.469Z,12.09
2019-05-16T07:57:16.166Z,12.10
2019-05-16T07:58:03.508Z,12.24
2019-05-16T07:59:03.560Z,12.15
2019-05-16T08:00:03.554Z,12.18
2019-05-16T08:01:08.049Z,12.24
2019-05-16T08:02:03.585Z,12.20
2019-05-16T08:03:03.602Z,12.40
2019-05-16T08:04:03.622Z,12.39
2019-05-16T08:05:03.638Z,12.53
2019-05-16T08:06:03.660Z,12.47
2019-05-16T08:07:05.822Z,12.54
2019-05-16T08:08:03.693Z,12.54
2019-05-16T08:09:07.385Z,12.58
2019-05-16T08:10:03.736Z,12.54
2019-05-16T08:11:03.747Z,12.50
2019-05-16T08:12:05.884Z,12.65
2019-05-16T08:13:03.781Z,12.61
2019-05-16T08:14:03.800Z,12.79
2019-05-16T08:15:03.817Z,12.80
2019-05-16T08:16:03.843Z,12.83
2019-05-16T08:17:03.863Z,12.55
2019-05-16T08:18:03.875Z,12.62
2019-05-16T08:19:03.895Z,12.78
2019-05-16T08:20:03.918Z,12.78
2019-05-16T08:21:03.937Z,12.79
2019-05-16T08:22:03.953Z,13.00
2019-05-16T08:23:03.970Z,13.11
2019-05-16T08:24:07.225Z,13.12
2019-05-16T08:25:04.025Z,13.23
2019-05-16T08:26:04.025Z,13.15
2019-05-16T08:27:04.071Z,13.03
2019-05-16T08:28:04.060Z,13.08
2019-05-16T08:29:04.080Z,12.90
2019-05-16T08:30:04.100Z,13.04
2019-05-16T08:31:04.124Z,13.09
2019-05-16T08:32:04.136Z,13.13
2019-05-16T08:33:04.194Z,13.04
2019-05-16T08:34:04.176Z,12.86
2019-05-16T08:35:04.195Z,12.93
2019-05-16T08:36:08.134Z,13.05
2019-05-16T08:37:04.236Z,13.08
2019-05-16T08:38:04.252Z,12.97
2019-05-16T08:39:04.273Z,12.93
2019-05-16T08:40:04.288Z,12.97
2019-05-16T08:43:04.349Z,12.72
2019-05-16T08:44:04.364Z,12.80
2019-05-16T08:45:04.383Z,12.83
2019-05-16T08:46:04.401Z,12.79
2019-05-16T08:48:04.448Z,13.01
2019-05-16T08:49:04.506Z,12.94
2019-05-16T08:50:04.485Z,12.90
2019-05-16T08:50:08.654Z,12.94
2019-05-16T08:50:09.654Z,12.91
2019-05-16T08:51:04.505Z,12.93
2019-05-16T08:52:04.516Z,12.94
2019-05-16T08:53:04.537Z,12.91
2019-05-16T08:54:04.556Z,13.08
2019-05-16T08:55:04.609Z,13.09
2019-05-16T08:56:04.599Z,13.20
2019-05-16T08:57:21.749Z,13.23
2019-05-16T08:58:04.656Z,13.15
2019-05-16T08:59:04.722Z,13.31
2019-05-16T09:00:04.691Z,13.44
2019-05-16T09:01:04.692Z,13.37
2019-05-16T09:02:04.750Z,13.25
2019-05-16T09:03:04.728Z,13.33
2019-05-16T09:04:04.751Z,13.33
2019-05-16T09:05:06.049Z,13.13
2019-05-16T09:06:04.790Z,13.00
2019-05-16T09:07:04.801Z,13.12
2019-05-16T09:08:04.821Z,13.19
2019-05-16T09:09:26.675Z,13.23
2019-05-16T09:10:10.257Z,13.38
2019-05-16T09:10:31.813Z,13.00
2019-05-16T09:11:26.899Z,13.47
2019-05-16T09:12:07.725Z,13.15
2019-05-16T09:13:07.129Z,13.19
2019-05-16T09:14:07.806Z,13.31
2019-05-16T09:15:07.584Z,13.11
2019-05-16T09:16:07.555Z,13.16
2019-05-16T09:17:07.453Z,13.16
2019-05-16T09:18:07.506Z,13.16
2019-05-16T09:19:07.579Z,13.25
2019-05-16T09:20:07.410Z,13.37
2019-05-16T09:21:07.324Z,13.53
2019-05-16T09:22:07.364Z,13.42
2019-05-16T09:23:07.371Z,13.30
2019-05-16T09:24:06.767Z,13.52
2019-05-16T09:25:07.687Z,13.59
2019-05-16T09:26:07.332Z,13.50
2019-05-16T09:27:11.483Z,13.49
2019-05-16T09:28:07.452Z,13.52
2019-05-16T09:29:08.326Z,13.56
2019-05-16T09:30:07.179Z,13.62
2019-05-16T09:31:07.155Z,13.77
2019-05-16T09:32:12.730Z,13.90
2019-05-16T09:33:07.067Z,14.14
2019-05-16T09:34:07.393Z,14.11
2019-05-16T09:35:07.832Z,14.15
2019-05-16T09:36:07.803Z,14.18
2019-05-16T09:37:08.247Z,14.30
2019-05-16T09:38:07.224Z,14.20
2019-05-16T09:39:08.441Z,14.04
2019-05-16T09:40:06.479Z,14.12
2019-05-16T09:41:07.921Z,13.90
2019-05-16T09:42:08.006Z,13.65
2019-05-16T09:43:07.562Z,13.81
2019-05-16T09:44:08.460Z,13.60
2019-05-16T09:45:07.270Z,13.77
2019-05-16T09:46:07.853Z,13.86
2019-05-16T09:47:07.589Z,13.86
2019-05-16T09:48:08.110Z,13.90
2019-05-16T09:49:16.757Z,14.17
2019-05-16T09:50:06.875Z,14.29
2019-05-16T09:51:06.683Z,14.36
2019-05-16T09:52:07.503Z,14.33
2019-05-16T09:53:07.237Z,14.48
2019-05-16T09:54:07.214Z,14.65
2019-05-16T09:55:07.036Z,14.53
2019-05-16T09:56:06.994Z,14.51
2019-05-16T09:57:06.540Z,14.54
2019-05-16T09:58:07.297Z,14.23
2019-05-16T09:59:06.936Z,14.22
2019-05-16T10:00:06.766Z,13.90
2019-05-16T10:01:05.862Z,13.92
2019-05-16T10:02:07.260Z,14.15
2019-05-16T10:03:07.164Z,14.15
2019-05-16T10:04:06.675Z,14.22
2019-05-16T10:05:12.453Z,14.30
2019-05-16T10:06:07.949Z,14.29
2019-05-16T10:07:06.638Z,14.12
2019-05-16T10:08:06.850Z,14.07
2019-05-16T10:09:06.407Z,14.17
2019-05-16T10:10:06.571Z,14.15
2019-05-16T10:11:06.395Z,14.17
2019-05-16T10:12:14.790Z,14.20
2019-05-16T10:13:06.793Z,14.15
2019-05-16T10:14:07.307Z,14.17
2019-05-16T10:15:07.467Z,14.07
2019-05-16T10:16:07.215Z,14.03
2019-05-16T10:17:08.140Z,14.05
2019-05-16T10:18:07.548Z,14.36
2019-05-16T10:19:07.402Z,14.48
2019-05-16T10:20:07.820Z,14.69
2019-05-16T10:21:07.972Z,14.50
2019-05-16T10:22:07.375Z,14.62
2019-05-16T10:23:14.288Z,14.68
2019-05-16T10:24:07.303Z,14.59
2019-05-16T10:25:06.329Z,14.70
2019-05-16T10:26:06.350Z,14.73
2019-05-16T10:27:06.664Z,14.62
2019-05-16T10:28:06.392Z,14.53
2019-05-16T10:29:10.782Z,14.25
2019-05-16T10:30:08.382Z,14.36
2019-05-16T10:31:06.988Z,14.26
2019-05-16T10:32:07.549Z,14.17
2019-05-16T10:33:07.143Z,14.14
2019-05-16T10:34:07.620Z,13.97
2019-05-16T10:35:06.527Z,13.95
2019-05-16T10:36:08.378Z,13.89
2019-05-16T10:37:06.579Z,14.00
2019-05-16T10:38:06.597Z,13.93
2019-05-16T10:39:07.619Z,14.04
2019-05-16T10:40:07.311Z,13.89
2019-05-16T10:41:07.344Z,13.99
2019-05-16T10:42:06.946Z,14.11
2019-05-16T10:43:07.500Z,14.17
2019-05-16T10:44:06.709Z,13.97
2019-05-16T10:45:08.598Z,13.79
2019-05-16T10:46:06.828Z,13.57
2019-05-16T10:47:07.567Z,13.49
2019-05-16T10:48:06.784Z,13.44
2019-05-16T10:49:06.808Z,13.47
2019-05-16T10:50:06.832Z,13.49
2019-05-16T10:51:07.812Z,13.38
2019-05-16T10:52:07.280Z,13.25
2019-05-16T10:53:27.864Z,13.25
2019-05-16T10:54:13.348Z,13.25
2019-05-16T10:55:08.275Z,13.25
2019-05-16T10:56:07.744Z,13.25
2019-05-16T10:57:08.123Z,13.30
2019-05-16T10:58:07.509Z,13.23
2019-05-16T10:59:46.885Z,13.30
2019-05-16T11:00:16.403Z,13.28
2019-05-16T11:01:22.121Z,13.33
2019-05-16T11:02:07.540Z,13.44
2019-05-16T11:03:07.142Z,13.49
2019-05-16T11:04:07.610Z,13.59
2019-05-16T11:05:22.456Z,13.53
2019-05-16T11:06:17.412Z,13.41
2019-05-16T11:07:07.151Z,13.44
2019-05-16T11:08:08.256Z,13.53
2019-05-16T11:09:07.195Z,13.53
2019-05-16T11:10:07.344Z,13.49
2019-05-16T11:11:07.224Z,13.33
2019-05-16T11:12:07.251Z,13.33
2019-05-16T11:13:08.104Z,13.46
2019-05-16T11:14:09.296Z,13.56
2019-05-16T11:15:10.970Z,13.44
2019-05-16T11:16:09.507Z,13.31
2019-05-16T11:17:12.980Z,13.19
2019-05-16T11:18:07.354Z,13.27
2019-05-16T11:19:17.387Z,13.27
2019-05-16T11:20:07.682Z,13.38
2019-05-16T11:21:07.421Z,13.37
2019-05-16T11:22:07.430Z,13.33
2019-05-16T11:23:08.066Z,13.28
2019-05-16T11:24:12.900Z,13.28
2019-05-16T11:25:21.198Z,13.44
2019-05-16T11:26:07.509Z,13.57
2019-05-16T11:27:07.703Z,13.50
2019-05-16T11:28:07.576Z,13.50
2019-05-16T11:29:07.668Z,13.53
2019-05-16T11:30:07.734Z,13.50
2019-05-16T11:31:07.971Z,13.39
2019-05-16T11:32:07.624Z,13.31
2019-05-16T11:33:07.837Z,13.28
2019-05-16T11:34:07.661Z,13.37
2019-05-16T11:35:07.686Z,13.53
2019-05-16T11:36:12.025Z,13.63
2019-05-16T11:37:07.917Z,13.56
2019-05-16T11:38:07.744Z,13.57
2019-05-16T11:39:08.531Z,13.67
2019-05-16T11:40:07.778Z,13.85
2019-05-16T11:41:07.993Z,13.85
2019-05-16T11:42:08.258Z,13.56
2019-05-16T11:43:15.960Z,13.60
2019-05-16T11:44:07.854Z,13.68
2019-05-16T11:45:09.342Z,13.78
2019-05-16T11:46:07.886Z,13.93
2019-05-16T11:47:08.491Z,14.10
2019-05-16T11:48:07.928Z,14.11
2019-05-16T11:49:07.947Z,14.18
2019-05-16T11:50:07.965Z,14.04
2019-05-16T11:51:07.983Z,14.00
2019-05-16T11:52:08.003Z,14.08
2019-05-16T11:53:08.032Z,14.12
2019-05-16T11:54:08.045Z,14.28
2019-05-16T11:55:08.063Z,14.54
2019-05-16T11:56:08.606Z,14.55
2019-05-16T11:57:08.102Z,14.63
2019-05-16T11:58:08.120Z,14.77
2019-05-16T11:59:08.146Z,14.69
2019-05-16T12:00:08.164Z,14.85
2019-05-16T12:01:08.183Z,14.91
2019-05-16T12:02:08.205Z,14.94
2019-05-16T12:03:08.218Z,15.06
2019-05-16T12:04:08.241Z,14.92
2019-05-16T12:05:08.262Z,15.07
2019-05-16T12:06:10.548Z,15.06
2019-05-16T12:07:08.299Z,15.18
2019-05-16T12:08:08.323Z,15.17
2019-05-16T12:09:08.339Z,15.17
2019-05-16T12:10:08.359Z,15.21
2019-05-16T12:11:08.380Z,15.00
2019-05-16T12:12:08.925Z,14.70
2019-05-16T12:13:23.832Z,14.77
2019-05-16T12:14:08.442Z,14.92
2019-05-16T12:15:08.501Z,14.85
2019-05-16T12:16:08.486Z,14.86
2019-05-16T12:17:08.505Z,14.92
2019-05-16T12:18:08.953Z,15.00
2019-05-16T12:19:08.547Z,15.03
2019-05-16T12:20:08.564Z,14.92
2019-05-16T12:21:08.584Z,14.68
2019-05-16T12:22:08.658Z,14.58
2019-05-16T12:23:08.632Z,14.81
2019-05-16T12:24:08.653Z,14.81
2019-05-16T12:25:08.669Z,14.91
2019-05-16T12:26:09.035Z,15.06
2019-05-16T12:27:08.721Z,15.10
2019-05-16T12:28:08.737Z,15.04
2019-05-16T12:29:08.749Z,15.00
2019-05-16T12:30:13.476Z,14.62
2019-05-16T12:31:08.787Z,14.36
2019-05-16T12:32:08.901Z,14.32
2019-05-16T12:33:08.830Z,14.54
2019-05-16T12:34:09.865Z,14.63
2019-05-16T12:35:08.881Z,14.29
2019-05-16T12:36:08.893Z,14.23
2019-05-16T12:37:08.910Z,14.22
2019-05-16T12:38:08.928Z,14.04
2019-05-16T12:39:08.947Z,14.03
2019-05-16T12:40:09.223Z,13.93
2019-05-16T12:41:08.989Z,13.71
2019-05-16T12:42:09.011Z,13.68
2019-05-16T12:43:09.047Z,13.65
2019-05-16T12:44:09.049Z,13.65
2019-05-16T12:45:09.070Z,13.65
2019-05-16T12:46:09.133Z,13.72
2019-05-16T12:47:09.108Z,13.59
2019-05-16T12:48:09.130Z,13.60
2019-05-16T12:49:09.155Z,13.56
2019-05-16T12:50:09.165Z,13.60
2019-05-16T12:51:09.270Z,13.63
2019-05-16T12:52:09.207Z,13.39
2019-05-16T12:53:09.224Z,13.52